sensor_id;sensor_type;location;lat;lon;timestamp;temperature;humidity
6270;DHT22;3168;51.684;6.954;2023-02-07T00:02:10;0.20;54.00
6270;DHT22;3168;51.684;6.954;2023-02-07T00:04:35;0.30;54.30
6270;DHT22;3168;51.684;6.954;2023-02-07T00:07:01;0.20;53.50
6270;DHT22;3168;51.684;6.954;2023-02-07T00:09:27;0.20;49.70
6270;DHT22;3168;51.684;6.954;2023-02-07T00:11:54;0.20;46.30
6270;DHT22;3168;51.684;6.954;2023-02-07T00:14:20;0.10;46.10
6270;DHT22;3168;51.684;6.954;2023-02-07T00:16:45;0.10;44.50
6270;DHT22;3168;51.684;6.954;2023-02-07T00:19:11;0.20;43.20
6270;DHT22;3168;51.684;6.954;2023-02-07T00:21:37;0.10;40.00
6270;DHT22;3168;51.684;6.954;2023-02-07T00:24:03;0.00;37.70
6270;DHT22;3168;51.684;6.954;2023-02-07T00:26:29;0.00;35.20
6270;DHT22;3168;51.684;6.954;2023-02-07T00:28:55;0.00;34.60
6270;DHT22;3168;51.684;6.954;2023-02-07T00:31:25;0.00;33.10
6270;DHT22;3168;51.684;6.954;2023-02-07T00:33:50;-0.10;32.80
6270;DHT22;3168;51.684;6.954;2023-02-07T00:36:19;-0.10;30.50
6270;DHT22;3168;51.684;6.954;2023-02-07T00:38:42;-0.20;30.60
6270;DHT22;3168;51.684;6.954;2023-02-07T00:41:08;-0.20;30.30
6270;DHT22;3168;51.684;6.954;2023-02-07T00:43:34;-0.20;30.30
6270;DHT22;3168;51.684;6.954;2023-02-07T00:46:01;-0.20;30.10
6270;DHT22;3168;51.684;6.954;2023-02-07T00:48:26;-0.30;29.80
6270;DHT22;3168;51.684;6.954;2023-02-07T00:50:52;-0.20;29.10
6270;DHT22;3168;51.684;6.954;2023-02-07T00:53:18;-0.30;28.30
6270;DHT22;3168;51.684;6.954;2023-02-07T00:55:43;-0.30;27.60
6270;DHT22;3168;51.684;6.954;2023-02-07T00:58:09;-0.30;28.30
6270;DHT22;3168;51.684;6.954;2023-02-07T01:00:35;-0.30;28.40
6270;DHT22;3168;51.684;6.954;2023-02-07T01:03:01;-0.30;26.80
6270;DHT22;3168;51.684;6.954;2023-02-07T01:05:27;-0.50;26.50
6270;DHT22;3168;51.684;6.954;2023-02-07T01:07:54;-0.50;26.70
6270;DHT22;3168;51.684;6.954;2023-02-07T01:10:20;-0.50;26.60
6270;DHT22;3168;51.684;6.954;2023-02-07T01:12:46;-0.50;26.50
6270;DHT22;3168;51.684;6.954;2023-02-07T01:15:12;-0.50;24.60
6270;DHT22;3168;51.684;6.954;2023-02-07T01:17:38;-0.50;24.60
6270;DHT22;3168;51.684;6.954;2023-02-07T01:20:04;-0.50;23.20
6270;DHT22;3168;51.684;6.954;2023-02-07T01:22:30;-0.60;22.80
6270;DHT22;3168;51.684;6.954;2023-02-07T01:24:56;-0.60;22.40
6270;DHT22;3168;51.684;6.954;2023-02-07T01:27:22;-0.60;22.00
6270;DHT22;3168;51.684;6.954;2023-02-07T01:29:48;-0.60;22.40
6270;DHT22;3168;51.684;6.954;2023-02-07T01:32:13;-0.70;21.30
6270;DHT22;3168;51.684;6.954;2023-02-07T01:34:39;-0.60;20.50
6270;DHT22;3168;51.684;6.954;2023-02-07T01:37:05;-0.70;20.00
6270;DHT22;3168;51.684;6.954;2023-02-07T01:39:31;-0.80;21.20
6270;DHT22;3168;51.684;6.954;2023-02-07T01:41:57;-0.80;20.20
6270;DHT22;3168;51.684;6.954;2023-02-07T01:47:19;-0.70;19.60
6270;DHT22;3168;51.684;6.954;2023-02-07T01:49:44;-0.80;18.90
6270;DHT22;3168;51.684;6.954;2023-02-07T01:52:14;-0.80;17.40
6270;DHT22;3168;51.684;6.954;2023-02-07T01:54:38;-0.80;17.40
6270;DHT22;3168;51.684;6.954;2023-02-07T01:57:06;-0.90;16.50
6270;DHT22;3168;51.684;6.954;2023-02-07T01:59:31;-0.70;15.80
6270;DHT22;3168;51.684;6.954;2023-02-07T02:01:57;-0.80;15.30
6270;DHT22;3168;51.684;6.954;2023-02-07T02:04:23;-0.80;14.80
6270;DHT22;3168;51.684;6.954;2023-02-07T02:06:48;-0.80;14.70
6270;DHT22;3168;51.684;6.954;2023-02-07T02:09:15;-0.80;12.90
6270;DHT22;3168;51.684;6.954;2023-02-07T02:12:17;-0.80;12.50
6270;DHT22;3168;51.684;6.954;2023-02-07T02:15:02;-0.80;11.00
6270;DHT22;3168;51.684;6.954;2023-02-07T02:17:37;-0.90;10.90
6270;DHT22;3168;51.684;6.954;2023-02-07T02:23:03;-0.90;10.90
6270;DHT22;3168;51.684;6.954;2023-02-07T02:34:09;-1.00;10.80
6270;DHT22;3168;51.684;6.954;2023-02-07T02:36:38;-1.00;10.80
6270;DHT22;3168;51.684;6.954;2023-02-07T02:39:07;-1.00;10.80
6270;DHT22;3168;51.684;6.954;2023-02-07T02:41:34;-1.00;10.80
6270;DHT22;3168;51.684;6.954;2023-02-07T02:43:58;-1.10;11.20
6270;DHT22;3168;51.684;6.954;2023-02-07T02:46:25;-1.10;10.70
6270;DHT22;3168;51.684;6.954;2023-02-07T02:48:50;-1.20;10.20
6270;DHT22;3168;51.684;6.954;2023-02-07T02:51:16;-1.20;10.00
6270;DHT22;3168;51.684;6.954;2023-02-07T02:53:50;-1.10;10.80
6270;DHT22;3168;51.684;6.954;2023-02-07T02:59:25;-1.20;10.70
6270;DHT22;3168;51.684;6.954;2023-02-07T03:04:50;-1.30;10.70
6270;DHT22;3168;51.684;6.954;2023-02-07T03:16:02;-1.40;12.20
6270;DHT22;3168;51.684;6.954;2023-02-07T03:18:45;-1.50;12.50
6270;DHT22;3168;51.684;6.954;2023-02-07T03:21:30;-1.50;11.70
6270;DHT22;3168;51.684;6.954;2023-02-07T03:23:55;-1.60;11.60
6270;DHT22;3168;51.684;6.954;2023-02-07T03:26:20;-1.60;12.30
6270;DHT22;3168;51.684;6.954;2023-02-07T03:28:46;-1.60;13.40
6270;DHT22;3168;51.684;6.954;2023-02-07T03:31:13;-1.60;13.30
6270;DHT22;3168;51.684;6.954;2023-02-07T03:33:38;-1.70;14.30
6270;DHT22;3168;51.684;6.954;2023-02-07T03:36:21;-1.70;14.30
6270;DHT22;3168;51.684;6.954;2023-02-07T03:38:46;-1.70;14.30
6270;DHT22;3168;51.684;6.954;2023-02-07T03:41:17;-1.70;15.50
6270;DHT22;3168;51.684;6.954;2023-02-07T03:43:41;-1.80;15.20
6270;DHT22;3168;51.684;6.954;2023-02-07T03:46:08;-1.80;15.60
6270;DHT22;3168;51.684;6.954;2023-02-07T03:48:33;-1.90;15.80
6270;DHT22;3168;51.684;6.954;2023-02-07T03:50:59;-2.00;16.20
6270;DHT22;3168;51.684;6.954;2023-02-07T03:53:24;-1.90;17.60
6270;DHT22;3168;51.684;6.954;2023-02-07T03:55:50;-1.90;18.00
6270;DHT22;3168;51.684;6.954;2023-02-07T03:58:16;-1.90;18.10
6270;DHT22;3168;51.684;6.954;2023-02-07T04:00:42;-1.90;18.70
6270;DHT22;3168;51.684;6.954;2023-02-07T04:03:08;-1.90;18.10
6270;DHT22;3168;51.684;6.954;2023-02-07T04:05:34;-2.00;18.00
6270;DHT22;3168;51.684;6.954;2023-02-07T04:08:00;-2.00;18.60
6270;DHT22;3168;51.684;6.954;2023-02-07T04:10:25;-1.90;19.10
6270;DHT22;3168;51.684;6.954;2023-02-07T04:12:51;-2.00;18.20
6270;DHT22;3168;51.684;6.954;2023-02-07T04:15:17;-2.00;18.10
6270;DHT22;3168;51.684;6.954;2023-02-07T04:17:43;-2.10;18.30
6270;DHT22;3168;51.684;6.954;2023-02-07T04:20:09;-2.10;19.30
6270;DHT22;3168;51.684;6.954;2023-02-07T04:22:35;-2.10;18.10
6270;DHT22;3168;51.684;6.954;2023-02-07T04:25:01;-2.10;18.20
6270;DHT22;3168;51.684;6.954;2023-02-07T04:27:27;-2.10;18.20
6270;DHT22;3168;51.684;6.954;2023-02-07T04:29:53;-2.10;20.40
6270;DHT22;3168;51.684;6.954;2023-02-07T04:32:19;-2.10;19.90
6270;DHT22;3168;51.684;6.954;2023-02-07T04:34:45;-2.10;19.90
6270;DHT22;3168;51.684;6.954;2023-02-07T04:37:11;-2.10;20.20
6270;DHT22;3168;51.684;6.954;2023-02-07T04:39:37;-2.20;21.20
6270;DHT22;3168;51.684;6.954;2023-02-07T04:42:03;-2.20;21.10
6270;DHT22;3168;51.684;6.954;2023-02-07T04:44:29;-2.20;21.10
6270;DHT22;3168;51.684;6.954;2023-02-07T04:46:55;-2.20;21.40
6270;DHT22;3168;51.684;6.954;2023-02-07T04:49:21;-2.20;21.70
6270;DHT22;3168;51.684;6.954;2023-02-07T04:51:47;-2.20;21.90
6270;DHT22;3168;51.684;6.954;2023-02-07T04:54:13;-2.20;21.40
6270;DHT22;3168;51.684;6.954;2023-02-07T04:56:38;-2.20;21.60
6270;DHT22;3168;51.684;6.954;2023-02-07T04:59:04;-2.20;22.00
6270;DHT22;3168;51.684;6.954;2023-02-07T05:01:30;-2.20;23.70
6270;DHT22;3168;51.684;6.954;2023-02-07T05:03:56;-2.30;24.20
6270;DHT22;3168;51.684;6.954;2023-02-07T05:06:22;-2.30;23.40
6270;DHT22;3168;51.684;6.954;2023-02-07T05:08:47;-2.30;23.40
6270;DHT22;3168;51.684;6.954;2023-02-07T05:11:13;-2.30;24.70
6270;DHT22;3168;51.684;6.954;2023-02-07T05:13:39;-2.30;24.20
6270;DHT22;3168;51.684;6.954;2023-02-07T05:16:06;-2.40;25.40
6270;DHT22;3168;51.684;6.954;2023-02-07T05:18:32;-2.50;25.20
6270;DHT22;3168;51.684;6.954;2023-02-07T05:20:58;-2.60;25.90
6270;DHT22;3168;51.684;6.954;2023-02-07T05:23:23;-2.40;27.30
6270;DHT22;3168;51.684;6.954;2023-02-07T05:25:49;-2.40;28.40
6270;DHT22;3168;51.684;6.954;2023-02-07T05:28:15;-2.40;28.80
6270;DHT22;3168;51.684;6.954;2023-02-07T05:30:41;-2.40;28.90
6270;DHT22;3168;51.684;6.954;2023-02-07T05:33:07;-2.40;30.20
6270;DHT22;3168;51.684;6.954;2023-02-07T05:35:35;-2.40;30.10
6270;DHT22;3168;51.684;6.954;2023-02-07T05:38:01;-2.40;31.70
6270;DHT22;3168;51.684;6.954;2023-02-07T05:40:26;-2.50;30.00
6270;DHT22;3168;51.684;6.954;2023-02-07T05:42:53;-2.50;30.80
6270;DHT22;3168;51.684;6.954;2023-02-07T05:45:18;-2.50;32.40
6270;DHT22;3168;51.684;6.954;2023-02-07T05:47:44;-2.50;32.60
6270;DHT22;3168;51.684;6.954;2023-02-07T05:50:10;-2.50;32.70
6270;DHT22;3168;51.684;6.954;2023-02-07T05:52:36;-2.40;33.20
6270;DHT22;3168;51.684;6.954;2023-02-07T05:55:03;-2.40;32.40
6270;DHT22;3168;51.684;6.954;2023-02-07T05:57:29;-2.50;32.70
6270;DHT22;3168;51.684;6.954;2023-02-07T05:59:55;-2.40;32.90
6270;DHT22;3168;51.684;6.954;2023-02-07T06:02:21;-2.50;30.90
6270;DHT22;3168;51.684;6.954;2023-02-07T06:04:47;-2.50;29.30
6270;DHT22;3168;51.684;6.954;2023-02-07T06:07:12;-2.60;29.30
6270;DHT22;3168;51.684;6.954;2023-02-07T06:09:38;-2.60;28.40
6270;DHT22;3168;51.684;6.954;2023-02-07T06:12:04;-2.60;28.80
6270;DHT22;3168;51.684;6.954;2023-02-07T06:14:30;-2.60;27.70
6270;DHT22;3168;51.684;6.954;2023-02-07T06:16:56;-2.60;27.70
6270;DHT22;3168;51.684;6.954;2023-02-07T06:19:22;-2.60;27.70
6270;DHT22;3168;51.684;6.954;2023-02-07T06:21:48;-2.50;26.60
6270;DHT22;3168;51.684;6.954;2023-02-07T06:24:14;-2.60;25.20
6270;DHT22;3168;51.684;6.954;2023-02-07T06:26:40;-2.50;25.20
6270;DHT22;3168;51.684;6.954;2023-02-07T06:29:06;-2.70;24.90
6270;DHT22;3168;51.684;6.954;2023-02-07T06:31:32;-2.70;23.50
6270;DHT22;3168;51.684;6.954;2023-02-07T06:33:58;-2.70;22.60
6270;DHT22;3168;51.684;6.954;2023-02-07T06:36:24;-2.80;21.30
6270;DHT22;3168;51.684;6.954;2023-02-07T06:38:49;-2.90;20.50
6270;DHT22;3168;51.684;6.954;2023-02-07T06:41:15;-2.90;17.80
6270;DHT22;3168;51.684;6.954;2023-02-07T06:43:42;-2.90;17.50
6270;DHT22;3168;51.684;6.954;2023-02-07T06:46:08;-2.90;17.50
6270;DHT22;3168;51.684;6.954;2023-02-07T06:48:33;-2.90;17.50
6270;DHT22;3168;51.684;6.954;2023-02-07T06:50:59;-2.90;17.40
6270;DHT22;3168;51.684;6.954;2023-02-07T06:53:26;-2.80;17.50
6270;DHT22;3168;51.684;6.954;2023-02-07T06:55:52;-2.90;17.40
6270;DHT22;3168;51.684;6.954;2023-02-07T06:58:18;-2.80;16.80
6270;DHT22;3168;51.684;6.954;2023-02-07T07:00:43;-2.80;17.10
6270;DHT22;3168;51.684;6.954;2023-02-07T07:03:12;-2.80;16.10
6270;DHT22;3168;51.684;6.954;2023-02-07T07:05:38;-2.80;14.50
6270;DHT22;3168;51.684;6.954;2023-02-07T07:08:04;-2.90;14.40
6270;DHT22;3168;51.684;6.954;2023-02-07T07:10:30;-2.80;13.80
6270;DHT22;3168;51.684;6.954;2023-02-07T07:12:56;-2.90;13.40
6270;DHT22;3168;51.684;6.954;2023-02-07T07:15:21;-2.80;13.40
6270;DHT22;3168;51.684;6.954;2023-02-07T07:17:47;-2.80;13.00
6270;DHT22;3168;51.684;6.954;2023-02-07T07:20:13;-2.80;13.00
6270;DHT22;3168;51.684;6.954;2023-02-07T07:22:39;-2.80;13.00
6270;DHT22;3168;51.684;6.954;2023-02-07T07:25:05;-2.80;13.10
6270;DHT22;3168;51.684;6.954;2023-02-07T07:27:31;-2.80;13.80
6270;DHT22;3168;51.684;6.954;2023-02-07T07:29:57;-2.70;13.70
6270;DHT22;3168;51.684;6.954;2023-02-07T07:32:23;-2.70;14.50
6270;DHT22;3168;51.684;6.954;2023-02-07T07:34:49;-2.60;14.20
6270;DHT22;3168;51.684;6.954;2023-02-07T07:37:15;-2.70;13.70
6270;DHT22;3168;51.684;6.954;2023-02-07T07:39:40;-2.50;14.10
6270;DHT22;3168;51.684;6.954;2023-02-07T07:42:06;-2.50;14.90
6270;DHT22;3168;51.684;6.954;2023-02-07T07:44:32;-2.40;14.40
6270;DHT22;3168;51.684;6.954;2023-02-07T07:46:58;-2.50;13.80
6270;DHT22;3168;51.684;6.954;2023-02-07T07:49:24;-2.50;13.50
6270;DHT22;3168;51.684;6.954;2023-02-07T07:51:50;-2.40;13.10
6270;DHT22;3168;51.684;6.954;2023-02-07T07:54:15;-2.40;13.90
6270;DHT22;3168;51.684;6.954;2023-02-07T07:56:41;-2.30;14.30
6270;DHT22;3168;51.684;6.954;2023-02-07T07:59:07;-2.20;14.50
6270;DHT22;3168;51.684;6.954;2023-02-07T08:01:33;-2.20;14.10
6270;DHT22;3168;51.684;6.954;2023-02-07T08:03:59;-2.10;14.50
6270;DHT22;3168;51.684;6.954;2023-02-07T08:06:25;-2.10;14.10
6270;DHT22;3168;51.684;6.954;2023-02-07T08:08:51;-2.10;13.10
6270;DHT22;3168;51.684;6.954;2023-02-07T08:11:16;-2.10;13.50
6270;DHT22;3168;51.684;6.954;2023-02-07T08:13:42;-2.10;13.10
6270;DHT22;3168;51.684;6.954;2023-02-07T08:16:08;-2.00;14.10
6270;DHT22;3168;51.684;6.954;2023-02-07T08:18:34;-2.00;14.10
6270;DHT22;3168;51.684;6.954;2023-02-07T08:21:00;-1.90;14.20
6270;DHT22;3168;51.684;6.954;2023-02-07T08:23:26;-1.80;14.40
6270;DHT22;3168;51.684;6.954;2023-02-07T08:25:52;-1.80;15.40
6270;DHT22;3168;51.684;6.954;2023-02-07T08:28:18;-1.60;18.10
6270;DHT22;3168;51.684;6.954;2023-02-07T08:30:43;-1.60;16.60
6270;DHT22;3168;51.684;6.954;2023-02-07T08:33:09;-1.50;15.90
6270;DHT22;3168;51.684;6.954;2023-02-07T08:35:35;-1.50;14.40
6270;DHT22;3168;51.684;6.954;2023-02-07T08:38:02;-1.50;13.20
6270;DHT22;3168;51.684;6.954;2023-02-07T08:40:28;-1.50;12.90
6270;DHT22;3168;51.684;6.954;2023-02-07T08:42:53;-1.40;12.80
6270;DHT22;3168;51.684;6.954;2023-02-07T08:45:19;-1.40;11.90
6270;DHT22;3168;51.684;6.954;2023-02-07T08:47:45;-1.30;10.80
6270;DHT22;3168;51.684;6.954;2023-02-07T08:50:12;-1.20;11.10
6270;DHT22;3168;51.684;6.954;2023-02-07T08:52:37;-1.10;9.50
6270;DHT22;3168;51.684;6.954;2023-02-07T08:55:03;-1.00;6.90
6270;DHT22;3168;51.684;6.954;2023-02-07T08:57:29;-0.90;5.10
6270;DHT22;3168;51.684;6.954;2023-02-07T08:59:55;-0.90;2.80
6270;DHT22;3168;51.684;6.954;2023-02-07T09:02:21;-0.80;2.40
6270;DHT22;3168;51.684;6.954;2023-02-07T09:04:47;-0.70;1.00
6270;DHT22;3168;51.684;6.954;2023-02-07T09:07:12;-0.60;1.00
6270;DHT22;3168;51.684;6.954;2023-02-07T09:09:38;-0.60;1.00
6270;DHT22;3168;51.684;6.954;2023-02-07T09:12:05;-0.60;1.00
6270;DHT22;3168;51.684;6.954;2023-02-07T09:14:30;-0.50;1.00
6270;DHT22;3168;51.684;6.954;2023-02-07T09:16:56;-0.40;1.00
6270;DHT22;3168;51.684;6.954;2023-02-07T09:19:22;-0.40;1.00
6270;DHT22;3168;51.684;6.954;2023-02-07T09:21:48;-0.30;1.00
6270;DHT22;3168;51.684;6.954;2023-02-07T09:24:14;-0.20;1.00
6270;DHT22;3168;51.684;6.954;2023-02-07T09:26:39;-0.20;1.00
6270;DHT22;3168;51.684;6.954;2023-02-07T09:29:05;-0.10;1.00
6270;DHT22;3168;51.684;6.954;2023-02-07T09:31:32;0.20;1.00
6270;DHT22;3168;51.684;6.954;2023-02-07T09:33:57;0.10;1.00
6270;DHT22;3168;51.684;6.954;2023-02-07T09:36:24;0.20;1.00
6270;DHT22;3168;51.684;6.954;2023-02-07T09:38:50;0.10;1.00
6270;DHT22;3168;51.684;6.954;2023-02-07T09:41:25;0.20;1.00
6270;DHT22;3168;51.684;6.954;2023-02-07T09:43:55;0.40;1.00
6270;DHT22;3168;51.684;6.954;2023-02-07T09:46:27;0.50;1.00
6270;DHT22;3168;51.684;6.954;2023-02-07T09:49:05;0.50;1.00
6270;DHT22;3168;51.684;6.954;2023-02-07T09:51:30;0.70;1.00
6270;DHT22;3168;51.684;6.954;2023-02-07T09:53:57;0.70;1.00
6270;DHT22;3168;51.684;6.954;2023-02-07T09:56:23;0.90;1.00
6270;DHT22;3168;51.684;6.954;2023-02-07T10:01:38;1.10;1.00
6270;DHT22;3168;51.684;6.954;2023-02-07T10:04:26;1.20;1.00
6270;DHT22;3168;51.684;6.954;2023-02-07T10:06:51;1.30;1.00
6270;DHT22;3168;51.684;6.954;2023-02-07T10:09:17;1.30;1.00
6270;DHT22;3168;51.684;6.954;2023-02-07T10:11:54;1.30;1.00
6270;DHT22;3168;51.684;6.954;2023-02-07T10:15:01;1.40;1.00
6270;DHT22;3168;51.684;6.954;2023-02-07T10:20:05;1.50;1.00
6270;DHT22;3168;51.684;6.954;2023-02-07T10:22:35;1.70;1.00
6270;DHT22;3168;51.684;6.954;2023-02-07T10:25:10;1.80;1.00
6270;DHT22;3168;51.684;6.954;2023-02-07T10:27:38;1.90;1.00
6270;DHT22;3168;51.684;6.954;2023-02-07T10:32:35;2.00;1.00
6270;DHT22;3168;51.684;6.954;2023-02-07T10:35:06;2.20;1.00
6270;DHT22;3168;51.684;6.954;2023-02-07T10:37:29;2.20;1.00
6270;DHT22;3168;51.684;6.954;2023-02-07T10:39:59;2.30;1.00
6270;DHT22;3168;51.684;6.954;2023-02-07T10:42:23;2.30;1.00
6270;DHT22;3168;51.684;6.954;2023-02-07T10:44:48;2.40;1.00
6270;DHT22;3168;51.684;6.954;2023-02-07T10:47:15;2.40;1.00
6270;DHT22;3168;51.684;6.954;2023-02-07T10:49:40;2.50;1.00
6270;DHT22;3168;51.684;6.954;2023-02-07T10:52:26;2.60;1.00
6270;DHT22;3168;51.684;6.954;2023-02-07T10:55:06;2.70;1.00
6270;DHT22;3168;51.684;6.954;2023-02-07T10:57:32;2.70;1.00
6270;DHT22;3168;51.684;6.954;2023-02-07T11:00:04;2.70;1.00
6270;DHT22;3168;51.684;6.954;2023-02-07T11:02:44;2.80;1.00
6270;DHT22;3168;51.684;6.954;2023-02-07T11:05:27;2.80;1.00
6270;DHT22;3168;51.684;6.954;2023-02-07T11:07:56;2.90;1.00
6270;DHT22;3168;51.684;6.954;2023-02-07T11:10:23;2.90;1.00
6270;DHT22;3168;51.684;6.954;2023-02-07T11:12:49;3.00;1.00
6270;DHT22;3168;51.684;6.954;2023-02-07T11:15:15;3.00;1.00
6270;DHT22;3168;51.684;6.954;2023-02-07T11:17:45;3.10;1.00
6270;DHT22;3168;51.684;6.954;2023-02-07T11:20:06;3.10;1.00
6270;DHT22;3168;51.684;6.954;2023-02-07T11:22:32;3.20;1.00
6270;DHT22;3168;51.684;6.954;2023-02-07T11:25:00;3.20;1.00
6270;DHT22;3168;51.684;6.954;2023-02-07T11:27:25;3.30;1.00
6270;DHT22;3168;51.684;6.954;2023-02-07T11:29:52;3.30;1.00
6270;DHT22;3168;51.684;6.954;2023-02-07T11:32:16;3.40;1.00
6270;DHT22;3168;51.684;6.954;2023-02-07T11:34:49;3.40;1.00
6270;DHT22;3168;51.684;6.954;2023-02-07T11:37:32;3.40;1.00
6270;DHT22;3168;51.684;6.954;2023-02-07T11:40:23;3.70;1.00
6270;DHT22;3168;51.684;6.954;2023-02-07T11:42:47;3.70;1.00
6270;DHT22;3168;51.684;6.954;2023-02-07T11:45:14;3.70;1.00
6270;DHT22;3168;51.684;6.954;2023-02-07T11:47:40;3.60;1.00
6270;DHT22;3168;51.684;6.954;2023-02-07T11:50:05;3.60;1.00
6270;DHT22;3168;51.684;6.954;2023-02-07T11:52:31;3.40;1.00
6270;DHT22;3168;51.684;6.954;2023-02-07T11:54:59;3.60;1.00
6270;DHT22;3168;51.684;6.954;2023-02-07T11:57:23;3.70;1.00
6270;DHT22;3168;51.684;6.954;2023-02-07T11:59:58;3.80;1.00
6270;DHT22;3168;51.684;6.954;2023-02-07T12:02:21;3.90;1.00
6270;DHT22;3168;51.684;6.954;2023-02-07T12:04:45;3.90;1.00
6270;DHT22;3168;51.684;6.954;2023-02-07T12:07:18;3.80;1.00
6270;DHT22;3168;51.684;6.954;2023-02-07T12:09:59;3.80;1.00
6270;DHT22;3168;51.684;6.954;2023-02-07T12:15:18;3.80;1.00
6270;DHT22;3168;51.684;6.954;2023-02-07T12:18:02;3.90;1.00
6270;DHT22;3168;51.684;6.954;2023-02-07T12:20:28;4.00;1.00
6270;DHT22;3168;51.684;6.954;2023-02-07T12:22:57;4.00;1.00
6270;DHT22;3168;51.684;6.954;2023-02-07T12:25:21;4.00;1.00
6270;DHT22;3168;51.684;6.954;2023-02-07T12:27:47;4.10;1.00
6270;DHT22;3168;51.684;6.954;2023-02-07T12:30:31;4.20;1.00
6270;DHT22;3168;51.684;6.954;2023-02-07T12:32:57;4.30;1.00
6270;DHT22;3168;51.684;6.954;2023-02-07T12:35:45;4.20;1.00
6270;DHT22;3168;51.684;6.954;2023-02-07T12:38:15;4.30;1.00
6270;DHT22;3168;51.684;6.954;2023-02-07T12:40:46;4.30;1.00
6270;DHT22;3168;51.684;6.954;2023-02-07T12:43:27;4.30;1.00
6270;DHT22;3168;51.684;6.954;2023-02-07T12:46:13;4.50;1.00
6270;DHT22;3168;51.684;6.954;2023-02-07T12:48:46;4.40;1.00
6270;DHT22;3168;51.684;6.954;2023-02-07T12:53:52;4.50;1.00
6270;DHT22;3168;51.684;6.954;2023-02-07T12:56:28;4.60;1.00
6270;DHT22;3168;51.684;6.954;2023-02-07T12:59:19;4.60;1.00
6270;DHT22;3168;51.684;6.954;2023-02-07T13:05:32;4.60;1.00
6270;DHT22;3168;51.684;6.954;2023-02-07T13:07:58;4.60;1.00
6270;DHT22;3168;51.684;6.954;2023-02-07T13:10:26;4.70;1.00
6270;DHT22;3168;51.684;6.954;2023-02-07T13:12:51;4.70;1.00
6270;DHT22;3168;51.684;6.954;2023-02-07T13:16:04;4.70;1.00
6270;DHT22;3168;51.684;6.954;2023-02-07T13:18:18;4.70;1.00
6270;DHT22;3168;51.684;6.954;2023-02-07T13:20:53;4.70;1.00
6270;DHT22;3168;51.684;6.954;2023-02-07T13:23:19;4.60;1.00
6270;DHT22;3168;51.684;6.954;2023-02-07T13:25:45;4.60;1.00
6270;DHT22;3168;51.684;6.954;2023-02-07T13:28:17;4.50;1.00
6270;DHT22;3168;51.684;6.954;2023-02-07T13:30:40;4.70;1.00
6270;DHT22;3168;51.684;6.954;2023-02-07T13:33:15;4.70;1.00
6270;DHT22;3168;51.684;6.954;2023-02-07T13:35:33;4.70;1.00
6270;DHT22;3168;51.684;6.954;2023-02-07T13:38:05;4.60;1.00
6270;DHT22;3168;51.684;6.954;2023-02-07T13:40:36;4.70;1.00
6270;DHT22;3168;51.684;6.954;2023-02-07T13:43:04;4.70;1.00
6270;DHT22;3168;51.684;6.954;2023-02-07T13:45:50;4.70;1.00
6270;DHT22;3168;51.684;6.954;2023-02-07T13:48:57;4.80;1.00
6270;DHT22;3168;51.684;6.954;2023-02-07T13:52:30;4.70;1.00
6270;DHT22;3168;51.684;6.954;2023-02-07T13:54:11;4.70;1.00
6270;DHT22;3168;51.684;6.954;2023-02-07T13:56:34;4.70;1.00
6270;DHT22;3168;51.684;6.954;2023-02-07T13:59:22;4.70;1.00
6270;DHT22;3168;51.684;6.954;2023-02-07T14:01:44;4.70;1.00
6270;DHT22;3168;51.684;6.954;2023-02-07T14:04:07;4.70;1.00
6270;DHT22;3168;51.684;6.954;2023-02-07T14:06:36;4.70;1.00
6270;DHT22;3168;51.684;6.954;2023-02-07T14:09:23;4.60;1.00
6270;DHT22;3168;51.684;6.954;2023-02-07T14:11:55;4.60;1.00
6270;DHT22;3168;51.684;6.954;2023-02-07T14:14:21;4.70;1.00
6270;DHT22;3168;51.684;6.954;2023-02-07T14:16:49;4.70;1.00
6270;DHT22;3168;51.684;6.954;2023-02-07T14:19:13;4.70;1.00
6270;DHT22;3168;51.684;6.954;2023-02-07T14:21:40;4.70;1.00
6270;DHT22;3168;51.684;6.954;2023-02-07T14:24:28;4.80;1.00
6270;DHT22;3168;51.684;6.954;2023-02-07T14:26:53;4.70;1.00
6270;DHT22;3168;51.684;6.954;2023-02-07T14:29:37;4.70;1.00
6270;DHT22;3168;51.684;6.954;2023-02-07T14:37:20;4.70;1.00
6270;DHT22;3168;51.684;6.954;2023-02-07T14:39:47;4.70;1.00
6270;DHT22;3168;51.684;6.954;2023-02-07T14:42:16;4.70;1.00
6270;DHT22;3168;51.684;6.954;2023-02-07T14:44:42;4.60;1.00
6270;DHT22;3168;51.684;6.954;2023-02-07T14:47:08;4.70;1.00
6270;DHT22;3168;51.684;6.954;2023-02-07T14:49:42;4.70;1.00
6270;DHT22;3168;51.684;6.954;2023-02-07T14:52:12;4.60;1.00
6270;DHT22;3168;51.684;6.954;2023-02-07T14:54:41;4.70;1.00
6270;DHT22;3168;51.684;6.954;2023-02-07T14:59:53;4.60;1.00
6270;DHT22;3168;51.684;6.954;2023-02-07T15:02:27;4.60;1.00
6270;DHT22;3168;51.684;6.954;2023-02-07T15:04:52;4.60;1.00
6270;DHT22;3168;51.684;6.954;2023-02-07T15:07:18;4.60;1.00
6270;DHT22;3168;51.684;6.954;2023-02-07T15:09:44;4.60;1.00
6270;DHT22;3168;51.684;6.954;2023-02-07T15:12:12;4.60;1.00
6270;DHT22;3168;51.684;6.954;2023-02-07T15:14:37;4.50;1.00
6270;DHT22;3168;51.684;6.954;2023-02-07T15:17:03;4.50;1.00
6270;DHT22;3168;51.684;6.954;2023-02-07T15:19:32;4.50;1.00
6270;DHT22;3168;51.684;6.954;2023-02-07T15:21:57;4.50;1.00
6270;DHT22;3168;51.684;6.954;2023-02-07T15:24:26;4.50;1.00
6270;DHT22;3168;51.684;6.954;2023-02-07T15:27:06;4.40;1.00
6270;DHT22;3168;51.684;6.954;2023-02-07T15:29:32;4.40;1.00
6270;DHT22;3168;51.684;6.954;2023-02-07T15:31:57;4.40;1.00
6270;DHT22;3168;51.684;6.954;2023-02-07T15:34:26;4.30;1.00
6270;DHT22;3168;51.684;6.954;2023-02-07T15:36:53;4.30;1.00
6270;DHT22;3168;51.684;6.954;2023-02-07T15:39:21;4.30;1.00
6270;DHT22;3168;51.684;6.954;2023-02-07T15:41:48;4.20;1.00
6270;DHT22;3168;51.684;6.954;2023-02-07T15:44:22;4.20;1.00
6270;DHT22;3168;51.684;6.954;2023-02-07T15:46:53;4.20;1.00
6270;DHT22;3168;51.684;6.954;2023-02-07T15:49:40;4.20;1.00
6270;DHT22;3168;51.684;6.954;2023-02-07T15:52:12;4.10;1.00
6270;DHT22;3168;51.684;6.954;2023-02-07T15:54:38;4.00;1.00
6270;DHT22;3168;51.684;6.954;2023-02-07T15:57:03;4.00;1.00
6270;DHT22;3168;51.684;6.954;2023-02-07T15:59:29;3.90;1.00
6270;DHT22;3168;51.684;6.954;2023-02-07T16:01:56;4.00;1.00
6270;DHT22;3168;51.684;6.954;2023-02-07T16:04:24;3.80;1.00
6270;DHT22;3168;51.684;6.954;2023-02-07T16:06:57;3.80;1.00
6270;DHT22;3168;51.684;6.954;2023-02-07T16:09:38;3.70;1.00
6270;DHT22;3168;51.684;6.954;2023-02-07T16:14:41;3.50;1.00
6270;DHT22;3168;51.684;6.954;2023-02-07T16:17:15;3.40;1.00
6270;DHT22;3168;51.684;6.954;2023-02-07T16:19:32;3.40;1.00
6270;DHT22;3168;51.684;6.954;2023-02-07T16:22:03;3.30;1.00
6270;DHT22;3168;51.684;6.954;2023-02-07T16:24:27;3.30;1.00
6270;DHT22;3168;51.684;6.954;2023-02-07T16:26:53;3.20;1.00
6270;DHT22;3168;51.684;6.954;2023-02-07T16:29:20;3.10;1.00
6270;DHT22;3168;51.684;6.954;2023-02-07T16:31:44;3.10;1.00
6270;DHT22;3168;51.684;6.954;2023-02-07T16:34:11;3.10;1.00
6270;DHT22;3168;51.684;6.954;2023-02-07T16:36:36;3.10;1.00
6270;DHT22;3168;51.684;6.954;2023-02-07T16:39:03;3.00;1.00
6270;DHT22;3168;51.684;6.954;2023-02-07T16:41:29;3.00;1.00
6270;DHT22;3168;51.684;6.954;2023-02-07T16:43:59;3.00;1.00
6270;DHT22;3168;51.684;6.954;2023-02-07T16:46:24;2.90;1.00
6270;DHT22;3168;51.684;6.954;2023-02-07T16:48:49;2.80;1.00
6270;DHT22;3168;51.684;6.954;2023-02-07T16:51:15;2.70;1.00
6270;DHT22;3168;51.684;6.954;2023-02-07T16:53:41;2.60;1.00
6270;DHT22;3168;51.684;6.954;2023-02-07T16:56:09;2.40;1.00
6270;DHT22;3168;51.684;6.954;2023-02-07T16:58:33;2.30;1.00
6270;DHT22;3168;51.684;6.954;2023-02-07T17:00:58;2.20;1.00
6270;DHT22;3168;51.684;6.954;2023-02-07T17:03:24;2.00;1.00
6270;DHT22;3168;51.684;6.954;2023-02-07T17:05:50;2.00;1.00
6270;DHT22;3168;51.684;6.954;2023-02-07T17:08:19;1.90;1.00
6270;DHT22;3168;51.684;6.954;2023-02-07T17:10:44;1.80;1.00
6270;DHT22;3168;51.684;6.954;2023-02-07T17:13:08;1.90;1.00
6270;DHT22;3168;51.684;6.954;2023-02-07T17:15:33;1.60;1.00
6270;DHT22;3168;51.684;6.954;2023-02-07T17:17:59;1.50;1.00
6270;DHT22;3168;51.684;6.954;2023-02-07T17:20:27;1.40;1.00